Flight Track Log - Related Links

Times and Time Zones

All times are in EDT time to prevent confusion due to time zone crossing. See the ACA258 flight status page for this flight to view local times or setup timezone preferences in your user account.

Time Position Orientation Groundspeed Altitude Reporting Facility
EDT Latitude Longitude Course Direction KTS MPH feet Rate Location/Type
Fri 08:10:17 AM 49.9167 -97.2333 360° North 130 150 1,200  Level Winnipeg Center
Fri 08:11:17 AM 49.9500 -97.2333 360° North 190 219 2,800 1,950 Climbing Winnipeg Center
Fri 08:12:17 AM 50.0167 -97.2000 18° North 250 288 5,100 2,350 Climbing Winnipeg Center
Fri 08:13:17 AM 50.0333 -97.1000 75° East 270 311 7,500 2,550 Climbing Winnipeg Center
Fri 08:14:17 AM 50.0333 -96.9667 90° East 280 322 10,200 2,000 Climbing Winnipeg Center
Fri 08:15:17 AM 50.0333 -96.8333 90° East 330 380 11,500 1,250 Climbing Winnipeg Center
Fri 08:16:17 AM 50.0167 -96.6833 100° East 390 449 12,700 1,600 Climbing Winnipeg Center
Fri 08:17:17 AM 50.0167 -96.5000 90° East 400 460 14,700 2,050 Climbing Winnipeg Center
Fri 08:18:17 AM 50.0000 -96.3167 98° East 410 472 16,800 1,900 Climbing Winnipeg Center
Fri 08:19:17 AM 49.9833 -96.1667 100° East 420 483 18,500 1,850 Climbing Winnipeg Center
Fri 08:20:17 AM 49.9667 -95.9500 97° East 420 483 20,500 1,450 Climbing Winnipeg Center
Fri 08:21:17 AM 49.9500 -95.7667 98° East 430 495 21,400 1,100 Climbing Winnipeg Center
Fri 08:22:17 AM 49.9500 -95.5667 90° East 450 518 22,700 1,600 Climbing Winnipeg Center
Fri 08:23:17 AM 49.9333 -95.3833 98° East 450 518 24,600 1,450 Climbing Winnipeg Center
Fri 08:24:17 AM 49.9167 -95.1667 97° East 450 518 25,600 1,350 Climbing Winnipeg Center
Fri 08:25:17 AM 49.9167 -94.9833 90° East 450 518 27,300 1,550 Climbing Winnipeg Center
Fri 08:26:17 AM 49.8833 -94.8167 107° East 440 506 28,700 1,150 Climbing Winnipeg Center
Fri 08:27:17 AM 49.8500 -94.6333 106° East 440 506 29,600 992 Climbing Winnipeg Center
Fri 08:28:18 AM 49.8167 -94.4500 106° East 440 506 30,700 1,100 Climbing Winnipeg Center
Fri 08:29:17 AM 49.7833 -94.2500 104° East 440 506 31,800 857 Climbing Winnipeg Center
Fri 08:30:17 AM 49.7500 -94.1000 109° East 440 506 32,400 850 Climbing Winnipeg Center
Fri 08:31:17 AM 49.7000 -93.8833 110° East 440 506 33,500 700 Climbing Winnipeg Center
Fri 08:32:17 AM 49.6667 -93.7167 107° East 440 506 33,800 400 Climbing Winnipeg Center
Fri 08:33:17 AM 49.6500 -93.5333 98° East 450 518 34,300 600 Climbing Winnipeg Center
Fri 08:34:17 AM 49.6000 -93.3333 111° Southeast 450 518 35,000 350 Climbing Winnipeg Center
Fri 08:35:17 AM 49.5667 -93.1500 106° East 450 518 35,000  Level Winnipeg Center
Fri 08:36:17 AM 49.5167 -92.9667 113° Southeast 450 518 35,000  Level Winnipeg Center
Fri 08:37:17 AM 49.4833 -92.8000 107° East 450 518 35,000  Level Winnipeg Center
Fri 08:38:17 AM 49.4500 -92.5833 103° East 460 529 35,000  Level Winnipeg Center
Fri 08:39:17 AM 49.4167 -92.4167 107° East 450 518 35,000  Level Winnipeg Center
Fri 08:40:17 AM 49.3833 -92.2333 106° East 450 518 35,000  Level Winnipeg Center
Fri 08:41:17 AM 49.3333 -92.0333 111° Southeast 450 518 35,000  Level Winnipeg Center
Fri 08:42:47 AM 49.2667 -91.7667 111° Southeast 450 518 35,000  Level Winnipeg Center
Fri 08:43:47 AM 49.2333 -91.5833 105° East 450 518 35,000  Level Winnipeg Center
Fri 08:44:48 AM 49.1833 -91.4167 115° Southeast 460 529 35,000  Level Winnipeg Center
Fri 08:45:48 AM 49.1500 -91.2167 104° East 460 529 35,000  Level Winnipeg Center
Fri 08:46:48 AM 49.1000 -91.0333 113° Southeast 460 529 35,000  Level Winnipeg Center
Fri 08:47:48 AM 49.0667 -90.8333 104° East 460 529 35,000  Level Winnipeg Center
Fri 08:48:48 AM 49.0333 -90.6667 107° East 460 529 35,000  Level Winnipeg Center
Fri 08:49:48 AM 48.9833 -90.4833 113° Southeast 460 529 35,000  Level Winnipeg Center
Fri 08:50:48 AM 48.9500 -90.2833 104° East 460 529 35,000  Level Winnipeg Center
Fri 08:51:48 AM 48.9000 -90.1167 114° Southeast 460 529 35,000  Level Winnipeg Center
Fri 08:52:48 AM 48.8500 -89.9167 111° Southeast 460 529 35,000  Level Winnipeg Center
Fri 08:53:48 AM 48.8167 -89.7500 107° East 470 541 35,000  Level Winnipeg Center
Fri 08:54:48 AM 48.7667 -89.5500 111° Southeast 470 541 35,000  Level Winnipeg Center
Fri 08:55:48 AM 48.7167 -89.3500 111° Southeast 460 529 35,000  Level Winnipeg Center
Fri 08:56:48 AM 48.6667 -89.1833 114° Southeast 460 529 35,000  Level Winnipeg Center
Fri 08:57:48 AM 48.6167 -89.0167 114° Southeast 460 529 35,000  Level Winnipeg Center
Fri 08:58:48 AM 48.5667 -88.8167 111° Southeast 460 529 35,000  Level Winnipeg Center
Fri 08:59:48 AM 48.5167 -88.6833 119° Southeast 460 529 35,000  Level Winnipeg Center
Fri 09:00:48 AM 48.4500 -88.5167 121° Southeast 460 529 35,000  Level Winnipeg Center
Fri 09:01:48 AM 48.3833 -88.3167 117° Southeast 450 518 35,000  Level Winnipeg Center
Fri 09:02:48 AM 48.3333 -88.1833 119° Southeast 450 518 35,000 -50 Level Winnipeg Center
Fri 09:03:48 AM 48.2667 -87.9833 117° Southeast 450 518 34,900  Descending Winnipeg Center
Fri 09:04:48 AM 48.2000 -87.8500 127° Southeast 450 518 35,000 50 Climbing Winnipeg Center
Fri 09:05:48 AM 48.1333 -87.6833 121° Southeast 450 518 35,000  Level Winnipeg Center
Fri 09:06:48 AM 48.0667 -87.5167 121° Southeast 450 518 35,000  Level Winnipeg Center
Fri 09:07:48 AM 48.0167 -87.3500 114° Southeast 450 518 35,000  Level Winnipeg Center
Fri 09:08:48 AM 47.9500 -87.2000 124° Southeast 450 518 35,000  Level Winnipeg Center
Fri 09:09:48 AM 47.9000 -87.0333 114° Southeast 450 518 35,000  Level Winnipeg Center
Fri 09:10:48 AM 47.8333 -86.8667 121° Southeast 460 529 35,000  Level Winnipeg Center
Fri 09:11:48 AM 47.7667 -86.7000 121° Southeast 460 529 35,000  Level Winnipeg Center
Fri 09:12:48 AM 47.7000 -86.5500 123° Southeast 450 518 35,000  Level Winnipeg Center
Fri 09:13:48 AM 47.6333 -86.3833 121° Southeast 450 518 35,000  Level Winnipeg Center
Fri 09:14:48 AM 47.5667 -86.2167 121° Southeast 460 529 35,000 100 Level Winnipeg Center
Fri 09:15:48 AM 47.5000 -86.0667 123° Southeast 450 518 35,200 500 Climbing Winnipeg Center
Fri 09:16:48 AM 47.4500 -85.9000 114° Southeast 450 518 36,000 700 Climbing Winnipeg Center
Fri 09:17:48 AM 47.3833 -85.7333 121° Southeast 440 506 36,600 451 Climbing Winnipeg Center
Fri 09:19:01 AM 47.3167 -85.6000 126° Southeast 440 506 37,000 200 Climbing Toronto Center
Fri 09:19:48 AM 47.2500 -85.4500 123° Southeast 440 506 37,000  Level Winnipeg Center
Fri 09:20:48 AM 47.1833 -85.2833 120° Southeast 440 506 37,000  Level Winnipeg Center
Fri 09:21:48 AM 47.1333 -85.1333 116° Southeast 440 506 37,000  Level Winnipeg Center
Fri 09:22:48 AM 47.0667 -84.9667 120° Southeast 450 518 37,000  Level Winnipeg Center
Fri 09:23:48 AM 47.0000 -84.8167 123° Southeast 450 518 37,000 50 Level Winnipeg Center
Fri 09:24:48 AM 46.9333 -84.6667 123° Southeast 460 529 37,100  Climbing Winnipeg Center
Fri 09:25:48 AM 46.8667 -84.5000 120° Southeast 460 529 37,000 -50 Descending Winnipeg Center
Fri 09:26:48 AM 46.7833 -84.3500 129° Southeast 450 518 37,000  Level Winnipeg Center
Fri 09:27:48 AM 46.7167 -84.2000 123° Southeast 450 518 37,000  Level Winnipeg Center
Fri 09:29:01 AM 46.6667 -84.0500 116° Southeast 450 518 37,000  Level Toronto Center
Fri 09:30:01 AM 46.6000 -83.9000 123° Southeast 450 518 37,000  Level Toronto Center
Fri 09:31:01 AM 46.5333 -83.7333 120° Southeast 450 518 37,000 -400 Level Toronto Center
Fri 09:32:01 AM 46.4667 -83.5833 123° Southeast 460 529 36,200 -850 Descending Toronto Center
Fri 09:33:01 AM 46.4000 -83.4333 123° Southeast 460 529 35,300 -950 Descending Toronto Center
Fri 09:34:01 AM 46.3500 -83.2500 112° Southeast 450 518 34,300 -950 Descending Toronto Center
Fri 09:35:01 AM 46.2833 -83.1000 123° Southeast 450 518 33,400 -650 Descending Toronto Center
Fri 09:36:01 AM 46.2167 -82.9500 123° Southeast 450 518 33,000 -200 Descending Toronto Center
Fri 09:37:01 AM 46.1500 -82.8167 126° Southeast 450 518 33,000  Level Toronto Center
Fri 09:38:01 AM 46.0833 -82.6333 118° Southeast 450 518 33,000  Level Toronto Center
Fri 09:39:01 AM 46.0167 -82.4833 123° Southeast 450 518 33,000  Level Toronto Center
Fri 09:40:01 AM 45.9500 -82.3500 126° Southeast 450 518 33,000  Level Toronto Center
Fri 09:41:01 AM 45.8833 -82.2000 123° Southeast 450 518 33,000  Level Toronto Center
Fri 09:42:01 AM 45.8167 -82.0500 122° Southeast 450 518 33,000  Level Toronto Center
Fri 09:43:01 AM 45.7667 -81.8833 113° Southeast 450 518 33,000  Level Toronto Center
Fri 09:44:01 AM 45.7000 -81.7333 122° Southeast 450 518 33,000  Level Toronto Center
Fri 09:45:01 AM 45.6167 -81.5667 126° Southeast 450 518 33,000  Level Toronto Center
Fri 09:46:01 AM 45.5500 -81.4500 129° Southeast 450 518 33,000  Level Toronto Center
Fri 09:47:01 AM 45.4500 -81.3167 137° Southeast 430 495 33,000  Level Toronto Center
Fri 09:48:01 AM 45.3500 -81.2500 155° Southeast 430 495 33,000  Level Toronto Center
Fri 09:49:01 AM 45.2500 -81.1500 145° Southeast 430 495 33,000  Level Toronto Center
Fri 09:50:01 AM 45.1500 -81.0500 145° Southeast 430 495 33,000  Level Toronto Center
Fri 09:51:01 AM 45.0500 -80.9500 145° Southeast 430 495 33,000 -150 Level Toronto Center
Fri 09:52:01 AM 44.9500 -80.8500 145° Southeast 430 495 32,700 -650 Descending Toronto Center
Fri 09:53:01 AM 44.8500 -80.7667 149° Southeast 430 495 31,700 -1,000 Descending Toronto Center
Fri 09:54:01 AM 44.7500 -80.6833 149° Southeast 440 506 30,700 -1,800 Descending Toronto Center
Fri 09:55:01 AM 44.6500 -80.6000 149° Southeast 430 495 28,100 -2,500 Descending Toronto Center
Fri 09:56:01 AM 44.5500 -80.5000 145° Southeast 420 483 25,700 -2,500 Descending Toronto Center
Fri 09:57:01 AM 44.4500 -80.4000 144° Southeast 410 472 23,100 -2,450 Descending Toronto Center
Fri 09:58:01 AM 44.3667 -80.3333 150° Southeast 400 460 20,800 -2,400 Descending Toronto Center
Fri 09:59:01 AM 44.2667 -80.2333 144° Southeast 390 449 18,300 -2,400 Descending Toronto Center
Fri 10:00:01 AM 44.1833 -80.1667 150° Southeast 380 437 16,000 -2,250 Descending Toronto Center
Fri 10:01:01 AM 44.1000 -80.1000 150° Southeast 370 426 13,800 -1,900 Descending Toronto Center
Fri 10:02:01 AM 44.0167 -80.0000 139° Southeast 350 403 12,200 -900 Descending Toronto Center
Fri 10:03:01 AM 43.9500 -79.9333 144° Southeast 310 357 12,000 -550 Descending Toronto Center
Fri 10:04:01 AM 43.9000 -79.8667 136° Southeast 290 334 11,100 -1,300 Descending Toronto Center
Fri 10:05:01 AM 43.8333 -79.8000 144° Southeast 280 322 9,400 -1,450 Descending Toronto Center
Fri 10:06:01 AM 43.7667 -79.7500 152° Southeast 280 322 8,200 -1,150 Descending Toronto Center
Fri 10:07:01 AM 43.7167 -79.7500 180° South 240 276 7,100 -1,350 Descending Toronto Center
Fri 10:08:01 AM 43.6667 -79.8000 216° Southwest 230 265 5,500 -1,350 Descending Toronto Center
Fri 10:09:01 AM 43.6333 -79.8667 235° Southwest 230 265 4,400 -750 Descending Toronto Center
Fri 10:10:01 AM 43.5833 -79.8667 180° South 210 242 4,000 -450 Descending Toronto Center
Fri 10:11:01 AM 43.5500 -79.8167 133° Southeast 190 219 3,500 -600 Descending Toronto Center
Fri 10:12:01 AM 43.5833 -79.7500 55° Northeast 180 207 2,800 -800 Descending Toronto Center
Fri 10:13:01 AM 43.6167 -79.7000 47° Northeast 160 184 1,900 -800 Descending Toronto Center
Fri 10:14:01 AM 43.6500 -79.6833 20° North 130 150 1,200 -650 Descending Toronto Center
Fri 10:15:01 AM 43.6667 -79.6333 65° Northeast 130 150 600 -600 Descending Toronto Center

Login

Don't have an account? Register now (free) for customized features, flight alerts, and more!